Terminal Aerodrome Forecast
Issued by NWS

Home | Current Version | Previous Version | Graphics & Text | Print | Product List | Glossary On
Versions: 1 2 3 4 5 6 7 8 9 10 11 12 13 14 15 16 17 18 19 20 21 22
000
FTUS43 KLSX 190400 AAA
TAFSUS
TAF AMD
KSUS 190453Z 1905/1924 00000KT 4SM BR SKC
      TEMPO 1905/1909 1/2SM FG
     FM190900 00000KT 2SM BR SKC
      TEMPO 1909/1913 1/2SM FG VV001
     FM191500 14007KT P6SM FEW040=

USA.gov is the U.S. government's official web portal to all federal, state and local government web resources and services.